createdAt,value
2019-03-29T00:02:20.902Z,34.70
2019-03-29T00:04:50.641Z,38.05
2019-03-29T00:07:20.333Z,41.77
2019-03-29T00:09:50.129Z,38.73
2019-03-29T00:12:19.838Z,37.70
2019-03-29T00:14:49.564Z,37.03
2019-03-29T00:17:19.286Z,37.30
2019-03-29T00:19:49.078Z,45.70
2019-03-29T00:22:18.883Z,33.67
2019-03-29T00:24:48.750Z,44.65
2019-03-29T00:27:19.093Z,37.73
2019-03-29T00:29:49.072Z,40.67
2019-03-29T00:32:18.842Z,39.00
2019-03-29T00:34:48.775Z,43.33
2019-03-29T00:37:18.503Z,40.48
2019-03-29T00:39:48.321Z,46.60
2019-03-29T00:42:18.085Z,45.25
2019-03-29T00:44:47.822Z,48.17
2019-03-29T00:47:17.558Z,44.10
2019-03-29T00:49:47.263Z,45.33
2019-03-29T00:52:17.168Z,62.40
2019-03-29T00:54:46.771Z,52.40
2019-03-29T00:57:16.532Z,47.38
2019-03-29T00:59:46.207Z,46.95
2019-03-29T01:02:16.041Z,52.33
2019-03-29T01:04:45.898Z,45.85
2019-03-29T01:07:15.703Z,50.50
2019-03-29T01:09:45.420Z,49.33
2019-03-29T01:12:15.166Z,45.95
2019-03-29T01:14:44.904Z,49.98
2019-03-29T01:17:14.638Z,51.55
2019-03-29T01:19:44.420Z,47.45
2019-03-29T01:22:14.226Z,49.77
2019-03-29T01:24:44.071Z,51.85
2019-03-29T01:27:13.770Z,49.53
2019-03-29T01:29:43.491Z,47.15
2019-03-29T01:32:13.278Z,46.65
2019-03-29T01:34:43.341Z,46.28
2019-03-29T01:37:13.230Z,48.73
2019-03-29T01:39:43.034Z,45.70
2019-03-29T01:42:13.010Z,44.15
2019-03-29T01:44:42.750Z,43.38
2019-03-29T01:47:12.503Z,42.43
2019-03-29T01:49:42.299Z,42.35
2019-03-29T01:52:11.969Z,43.48
2019-03-29T01:54:41.760Z,46.90
2019-03-29T01:57:11.714Z,41.60
2019-03-29T01:59:42.325Z,42.23
2019-03-29T02:02:12.674Z,46.95
2019-03-29T02:04:42.416Z,47.75
2019-03-29T02:07:12.277Z,48.83
2019-03-29T02:09:42.030Z,55.48
2019-03-29T02:12:11.708Z,49.10
2019-03-29T02:14:41.471Z,43.83
2019-03-29T02:17:11.256Z,46.08
2019-03-29T02:19:40.892Z,42.62
2019-03-29T02:22:10.716Z,45.25
2019-03-29T02:24:40.554Z,45.30
2019-03-29T02:27:10.252Z,44.05
2019-03-29T02:29:40.047Z,44.65
2019-03-29T02:32:09.738Z,42.38
2019-03-29T02:34:39.539Z,44.60
2019-03-29T02:37:09.330Z,43.23
2019-03-29T02:39:39.116Z,50.05
2019-03-29T02:42:08.823Z,42.65
2019-03-29T02:44:40.487Z,43.15
2019-03-29T02:47:10.250Z,43.38
2019-03-29T02:49:40.490Z,44.55
2019-03-29T02:52:10.472Z,41.48
2019-03-29T02:54:40.173Z,41.33
2019-03-29T02:57:10.075Z,38.65
2019-03-29T02:59:40.097Z,40.88
2019-03-29T03:02:09.839Z,42.10
2019-03-29T03:04:40.092Z,44.35
2019-03-29T03:07:09.783Z,39.40
2019-03-29T03:09:39.580Z,38.90
2019-03-29T03:12:09.396Z,32.50
2019-03-29T03:14:39.084Z,41.25
2019-03-29T03:17:08.896Z,37.33
2019-03-29T03:19:38.695Z,36.83
2019-03-29T03:22:08.515Z,36.03
2019-03-29T03:24:38.396Z,34.65
2019-03-29T03:27:08.153Z,32.35
2019-03-29T03:29:37.965Z,32.93
2019-03-29T03:32:07.775Z,37.35
2019-03-29T03:34:37.637Z,36.58
2019-03-29T03:37:07.326Z,36.50
2019-03-29T03:39:37.097Z,36.08
2019-03-29T03:42:07.094Z,35.73
2019-03-29T03:44:36.887Z,38.38
2019-03-29T03:47:07.105Z,34.53
2019-03-29T03:49:36.864Z,40.95
2019-03-29T03:52:06.539Z,34.83
2019-03-29T03:54:37.118Z,35.00
2019-03-29T03:57:07.018Z,38.28
2019-03-29T03:59:37.726Z,34.27
2019-03-29T04:02:07.396Z,31.65
2019-03-29T04:04:37.867Z,28.00
2019-03-29T04:07:07.864Z,31.60
2019-03-29T04:09:49.377Z,42.03
2019-03-29T04:12:09.096Z,34.90
2019-03-29T04:14:38.946Z,34.63
2019-03-29T04:17:08.691Z,34.85
2019-03-29T04:19:38.463Z,36.20
2019-03-29T04:22:08.198Z,35.30
2019-03-29T04:24:38.043Z,35.75
2019-03-29T04:27:07.883Z,37.42
2019-03-29T04:29:37.577Z,34.98
2019-03-29T04:32:07.264Z,33.28
2019-03-29T04:34:37.033Z,34.53
2019-03-29T04:37:06.743Z,32.85
2019-03-29T04:39:36.525Z,30.05
2019-03-29T04:42:06.206Z,30.75
2019-03-29T04:44:35.982Z,35.60
2019-03-29T04:47:05.670Z,33.42
2019-03-29T04:49:36.259Z,31.52
2019-03-29T04:52:06.005Z,27.55
2019-03-29T04:54:35.748Z,31.40
2019-03-29T04:57:05.427Z,42.20
2019-03-29T04:59:35.135Z,39.48
2019-03-29T05:02:04.919Z,29.48
2019-03-29T05:04:34.633Z,28.77
2019-03-29T05:07:04.384Z,33.38
2019-03-29T05:09:35.145Z,31.60
2019-03-29T05:12:04.953Z,35.52
2019-03-29T05:14:34.661Z,33.40
2019-03-29T05:17:04.977Z,34.85
2019-03-29T05:19:34.661Z,31.42
2019-03-29T05:22:04.396Z,32.93
2019-03-29T05:24:34.165Z,40.12
2019-03-29T05:27:04.136Z,32.78
2019-03-29T05:29:33.871Z,28.65
2019-03-29T05:32:03.581Z,31.55
2019-03-29T05:34:33.216Z,25.60
2019-03-29T05:37:02.938Z,34.83
2019-03-29T05:39:33.025Z,30.55
2019-03-29T05:42:02.828Z,28.17
2019-03-29T05:44:32.595Z,29.35
2019-03-29T05:47:02.322Z,27.80
2019-03-29T05:49:32.028Z,28.07
2019-03-29T05:52:01.734Z,23.85
2019-03-29T05:54:31.642Z,23.70
2019-03-29T05:57:01.494Z,22.60
2019-03-29T05:59:31.274Z,19.57
2019-03-29T06:02:01.136Z,19.92
2019-03-29T06:04:31.002Z,19.48
2019-03-29T06:07:00.675Z,15.05
2019-03-29T06:09:30.523Z,16.20
2019-03-29T06:12:00.314Z,18.75
2019-03-29T06:14:30.028Z,15.67
2019-03-29T06:16:59.770Z,26.83
2019-03-29T06:19:29.866Z,16.87
2019-03-29T06:21:59.550Z,21.70
2019-03-29T06:24:29.327Z,16.80
2019-03-29T06:26:59.163Z,17.43
2019-03-29T06:29:29.053Z,22.10
2019-03-29T06:31:58.828Z,18.50
2019-03-29T06:34:28.680Z,18.57
2019-03-29T06:36:59.818Z,21.80
2019-03-29T06:39:31.175Z,25.33
2019-03-29T06:42:00.917Z,24.93
2019-03-29T06:44:30.636Z,18.30
2019-03-29T06:47:00.450Z,21.87
2019-03-29T06:49:30.194Z,27.00
2019-03-29T06:51:59.956Z,18.53
2019-03-29T06:54:29.682Z,20.67
2019-03-29T06:56:59.433Z,18.20
2019-03-29T06:59:29.256Z,18.80
2019-03-29T07:01:59.058Z,18.20
2019-03-29T07:04:28.815Z,18.20
2019-03-29T07:06:58.499Z,19.20
2019-03-29T07:09:28.229Z,19.93
2019-03-29T07:11:58.022Z,19.50
2019-03-29T07:14:27.774Z,19.10
2019-03-29T07:16:57.587Z,20.10
2019-03-29T07:19:27.370Z,22.87
2019-03-29T07:21:57.086Z,21.00
2019-03-29T07:24:26.879Z,21.73
2019-03-29T07:26:56.703Z,19.73
2019-03-29T07:29:26.573Z,17.17
2019-03-29T07:31:56.285Z,17.40
2019-03-29T07:34:26.098Z,19.50
2019-03-29T07:36:55.925Z,17.90
2019-03-29T07:39:25.645Z,16.27
2019-03-29T07:41:55.541Z,21.30
2019-03-29T07:44:25.315Z,19.63
2019-03-29T07:46:55.081Z,15.47
2019-03-29T07:49:24.953Z,15.40
2019-03-29T07:51:54.765Z,15.60
2019-03-29T07:54:24.655Z,14.67
2019-03-29T07:56:54.347Z,15.53
2019-03-29T07:59:24.097Z,14.77
2019-03-29T08:01:53.887Z,13.70
2019-03-29T08:04:23.983Z,14.83
2019-03-29T08:06:54.055Z,14.33
2019-03-29T08:09:23.907Z,13.00
2019-03-29T08:11:55.239Z,18.23
2019-03-29T08:14:25.041Z,13.33
2019-03-29T08:16:54.729Z,12.63
2019-03-29T08:19:24.479Z,12.03
2019-03-29T08:21:57.629Z,16.17
2019-03-29T08:24:25.771Z,14.33
2019-03-29T08:26:55.605Z,14.20
2019-03-29T08:29:25.542Z,14.17
2019-03-29T08:31:55.790Z,13.23
2019-03-29T08:34:25.721Z,12.23
2019-03-29T08:36:55.465Z,12.73
2019-03-29T08:39:28.290Z,12.70
2019-03-29T08:42:00.348Z,14.00
2019-03-29T08:44:28.330Z,15.37
2019-03-29T08:46:58.108Z,14.10
2019-03-29T08:49:27.816Z,14.93
2019-03-29T08:51:57.529Z,12.00
2019-03-29T08:54:27.197Z,17.87
2019-03-29T08:56:56.891Z,14.53
2019-03-29T08:59:26.726Z,14.63
2019-03-29T09:01:56.431Z,14.90
2019-03-29T09:04:26.190Z,20.10
2019-03-29T09:06:55.894Z,17.00
2019-03-29T09:09:27.212Z,15.33
2019-03-29T09:11:57.052Z,17.57
2019-03-29T09:14:26.814Z,18.23
2019-03-29T09:16:56.578Z,16.60
2019-03-29T09:19:26.381Z,16.70
2019-03-29T09:21:59.547Z,24.73
2019-03-29T09:24:29.257Z,15.30
2019-03-29T09:26:59.072Z,17.83
2019-03-29T09:29:28.804Z,20.07
2019-03-29T09:31:58.531Z,14.07
2019-03-29T09:34:28.965Z,15.70
2019-03-29T09:37:00.100Z,15.43
2019-03-29T09:39:30.104Z,15.83
2019-03-29T09:41:59.935Z,13.40
2019-03-29T09:44:29.748Z,14.93
2019-03-29T09:46:59.550Z,12.87
2019-03-29T09:49:29.334Z,14.53
2019-03-29T09:51:59.115Z,14.50
2019-03-29T09:54:28.844Z,12.47
2019-03-29T09:56:58.655Z,13.50
2019-03-29T09:59:28.429Z,13.80
2019-03-29T10:01:58.288Z,10.87
2019-03-29T10:04:28.038Z,10.83
2019-03-29T10:06:57.884Z,12.47
2019-03-29T10:09:27.588Z,9.40
2019-03-29T10:11:57.351Z,10.00
2019-03-29T10:14:27.022Z,20.87
2019-03-29T10:16:56.794Z,11.47
2019-03-29T10:19:26.525Z,11.33
2019-03-29T10:21:56.233Z,9.80
2019-03-29T10:24:25.920Z,8.30
2019-03-29T10:26:55.649Z,7.17
2019-03-29T10:29:25.363Z,7.73
2019-03-29T10:31:55.175Z,7.73
2019-03-29T10:34:24.970Z,10.03
2019-03-29T10:36:54.807Z,7.23
2019-03-29T10:39:26.252Z,6.70
2019-03-29T10:41:56.297Z,9.87
2019-03-29T10:44:26.173Z,8.93
2019-03-29T10:46:55.962Z,6.37
2019-03-29T10:49:25.706Z,10.57
2019-03-29T10:51:55.419Z,6.93
2019-03-29T10:54:25.218Z,6.60
2019-03-29T10:56:55.000Z,9.20
2019-03-29T10:59:27.670Z,7.30
2019-03-29T11:01:56.753Z,5.03
2019-03-29T11:04:26.469Z,7.37
2019-03-29T11:06:56.203Z,7.17
2019-03-29T11:09:28.562Z,5.23
2019-03-29T11:11:58.375Z,5.03
2019-03-29T11:14:28.367Z,5.20
2019-03-29T11:16:58.227Z,5.23
2019-03-29T11:19:28.057Z,4.33
2019-03-29T11:21:57.969Z,6.07
2019-03-29T11:24:27.788Z,5.83
2019-03-29T11:26:57.584Z,7.90
2019-03-29T11:29:27.462Z,6.00
2019-03-29T11:31:57.143Z,5.20
2019-03-29T11:34:26.831Z,6.27
2019-03-29T11:36:56.657Z,5.80
2019-03-29T11:39:27.541Z,7.73
2019-03-29T11:41:59.397Z,6.73
2019-03-29T11:44:30.405Z,5.97
2019-03-29T11:47:00.373Z,6.57
2019-03-29T11:49:30.175Z,6.50
2019-03-29T11:51:59.938Z,5.40
2019-03-29T11:54:29.687Z,5.00
2019-03-29T11:56:59.944Z,6.40
2019-03-29T11:59:29.812Z,5.27
2019-03-29T12:01:59.626Z,5.20
2019-03-29T12:04:29.441Z,6.53
2019-03-29T12:06:59.301Z,7.10
2019-03-29T12:09:29.111Z,5.07
2019-03-29T12:11:58.951Z,6.07
2019-03-29T12:14:28.797Z,6.70
2019-03-29T12:16:58.616Z,9.73
2019-03-29T12:19:28.330Z,6.30
2019-03-29T12:21:58.022Z,6.23
2019-03-29T12:24:27.796Z,6.70
2019-03-29T12:26:57.587Z,6.37
2019-03-29T12:29:27.246Z,6.60
2019-03-29T12:31:56.950Z,5.50
2019-03-29T12:34:26.654Z,9.37
2019-03-29T12:36:56.374Z,6.23
2019-03-29T12:39:26.081Z,6.23
2019-03-29T12:41:55.794Z,6.77
2019-03-29T12:44:25.513Z,7.10
2019-03-29T12:46:55.352Z,7.27
2019-03-29T12:49:25.132Z,7.50
2019-03-29T12:51:54.831Z,7.70
2019-03-29T12:54:25.302Z,6.70
2019-03-29T12:56:55.173Z,5.97
2019-03-29T12:59:24.878Z,6.60
2019-03-29T13:01:57.807Z,6.97
2019-03-29T13:04:27.486Z,5.30
2019-03-29T13:06:57.293Z,5.57
2019-03-29T13:09:27.076Z,6.87
2019-03-29T13:11:56.882Z,7.13
2019-03-29T13:14:26.729Z,6.10
2019-03-29T13:16:56.830Z,6.50
2019-03-29T13:19:26.707Z,7.47
2019-03-29T13:21:56.362Z,7.40
2019-03-29T13:24:26.050Z,9.30
2019-03-29T13:26:55.741Z,7.27
2019-03-29T13:29:25.525Z,5.20
2019-03-29T13:31:55.593Z,7.83
2019-03-29T13:34:25.421Z,5.80
2019-03-29T13:36:56.607Z,6.73
2019-03-29T13:39:26.455Z,5.80
2019-03-29T13:41:56.344Z,7.63
2019-03-29T13:44:28.249Z,8.33
2019-03-29T13:46:57.536Z,7.20
2019-03-29T13:49:27.338Z,7.17
2019-03-29T13:51:57.120Z,6.87
2019-03-29T13:54:26.917Z,8.17
2019-03-29T13:56:56.721Z,7.63
2019-03-29T13:59:28.062Z,6.73
2019-03-29T14:01:57.832Z,7.07
2019-03-29T14:04:27.501Z,6.73
2019-03-29T14:06:57.199Z,6.33
2019-03-29T14:09:29.365Z,5.93
2019-03-29T14:11:58.849Z,6.30
2019-03-29T14:14:38.036Z,5.60
2019-03-29T14:17:00.061Z,6.03
2019-03-29T14:19:29.825Z,5.93
2019-03-29T14:21:59.727Z,6.93
2019-03-29T14:24:33.032Z,5.87
2019-03-29T14:27:02.811Z,6.80
2019-03-29T14:29:33.135Z,5.00
2019-03-29T14:32:02.861Z,3.83
2019-03-29T14:34:32.507Z,4.63
2019-03-29T14:37:02.195Z,4.73
2019-03-29T14:39:31.957Z,4.33
2019-03-29T14:42:01.791Z,5.13
2019-03-29T14:44:31.541Z,4.40
2019-03-29T14:47:01.341Z,5.63
2019-03-29T14:49:31.025Z,6.07
2019-03-29T14:52:00.825Z,3.90
2019-03-29T14:54:30.519Z,6.03
2019-03-29T14:57:00.197Z,4.60
2019-03-29T14:59:29.993Z,4.77
2019-03-29T15:01:59.953Z,4.53
2019-03-29T15:04:30.588Z,4.20
2019-03-29T15:07:00.409Z,5.27
2019-03-29T15:09:30.309Z,3.60
2019-03-29T15:12:00.002Z,5.77
2019-03-29T15:14:30.769Z,8.30
2019-03-29T15:17:00.527Z,7.77
2019-03-29T15:19:30.204Z,4.70
2019-03-29T15:21:59.941Z,3.53
2019-03-29T15:24:29.659Z,4.20
2019-03-29T15:26:59.413Z,4.30
2019-03-29T15:29:29.191Z,4.83
2019-03-29T15:31:58.914Z,4.30
2019-03-29T15:34:28.642Z,5.07
2019-03-29T15:36:58.426Z,3.73
2019-03-29T15:39:28.096Z,3.73
2019-03-29T15:41:57.781Z,2.80
2019-03-29T15:44:27.570Z,4.23
2019-03-29T15:46:57.358Z,3.37
2019-03-29T15:49:27.190Z,4.13
2019-03-29T15:51:57.009Z,3.53
2019-03-29T15:54:26.758Z,3.33
2019-03-29T15:56:56.512Z,5.77
2019-03-29T15:59:26.216Z,3.80
2019-03-29T16:01:55.922Z,3.00
2019-03-29T16:04:25.657Z,5.40
2019-03-29T16:06:58.036Z,3.30
2019-03-29T16:09:27.882Z,4.60
2019-03-29T16:11:57.550Z,4.33
2019-03-29T16:14:27.479Z,4.80
2019-03-29T16:17:00.245Z,2.50
2019-03-29T16:19:29.977Z,2.63
2019-03-29T16:21:59.728Z,3.10
2019-03-29T16:24:29.457Z,4.00
2019-03-29T16:26:59.182Z,2.47
2019-03-29T16:29:28.900Z,2.97
2019-03-29T16:31:58.600Z,4.17
2019-03-29T16:34:28.326Z,3.37
2019-03-29T16:36:58.424Z,3.23
2019-03-29T16:39:28.125Z,3.70
2019-03-29T16:41:57.991Z,4.00
2019-03-29T16:44:27.663Z,3.60
2019-03-29T16:46:57.361Z,3.17
2019-03-29T16:49:27.169Z,3.17
2019-03-29T16:51:56.816Z,2.83
2019-03-29T16:54:26.620Z,3.73
2019-03-29T16:56:56.352Z,3.50
2019-03-29T16:59:26.159Z,2.70
2019-03-29T17:01:55.881Z,3.50
2019-03-29T17:04:25.577Z,3.30
2019-03-29T17:06:55.290Z,3.97
2019-03-29T17:09:24.992Z,3.30
2019-03-29T17:11:54.801Z,4.07
2019-03-29T17:14:24.536Z,3.03
2019-03-29T17:16:54.280Z,3.10
2019-03-29T17:19:24.042Z,4.17
2019-03-29T17:21:53.718Z,9.53
2019-03-29T17:24:23.404Z,4.50
2019-03-29T17:26:53.297Z,3.70
2019-03-29T17:29:23.298Z,6.00
2019-03-29T17:31:52.881Z,5.30
2019-03-29T17:34:22.705Z,4.87
2019-03-29T17:36:52.792Z,6.83
2019-03-29T17:39:22.849Z,5.93
2019-03-29T17:41:53.702Z,7.10
2019-03-29T17:44:25.241Z,10.70
2019-03-29T17:46:55.107Z,5.93
2019-03-29T17:49:24.858Z,7.40
2019-03-29T17:51:55.070Z,9.67
2019-03-29T17:54:24.762Z,8.43
2019-03-29T17:56:54.443Z,14.57
2019-03-29T17:59:24.178Z,6.67
2019-03-29T18:01:53.900Z,4.87
2019-03-29T18:04:23.695Z,5.80
2019-03-29T18:06:53.862Z,4.40
2019-03-29T18:09:23.566Z,5.37
2019-03-29T18:11:53.320Z,4.23
2019-03-29T18:14:23.201Z,4.60
2019-03-29T18:16:52.995Z,6.07
2019-03-29T18:19:22.742Z,8.17
2019-03-29T18:21:52.606Z,6.40
2019-03-29T18:24:22.413Z,4.70
2019-03-29T18:26:52.115Z,5.20
2019-03-29T18:29:21.898Z,3.00
2019-03-29T18:31:51.963Z,3.93
2019-03-29T18:34:23.006Z,2.90
2019-03-29T18:36:54.363Z,5.50
2019-03-29T18:39:24.188Z,4.37
2019-03-29T18:41:53.968Z,3.30
2019-03-29T18:44:23.798Z,4.03
2019-03-29T18:46:54.197Z,3.10
2019-03-29T18:49:26.163Z,4.23
2019-03-29T18:51:58.853Z,3.57
2019-03-29T18:54:28.612Z,6.73
2019-03-29T18:56:58.365Z,4.80
2019-03-29T18:59:28.147Z,15.50
2019-03-29T19:01:58.021Z,3.23
2019-03-29T19:04:27.872Z,3.57
2019-03-29T19:06:57.940Z,3.63
2019-03-29T19:09:27.692Z,5.30
2019-03-29T19:12:01.022Z,5.93
2019-03-29T19:14:30.867Z,3.80
2019-03-29T19:17:01.615Z,6.73
2019-03-29T19:19:31.420Z,3.77
2019-03-29T19:22:01.667Z,4.27
2019-03-29T19:24:31.410Z,5.83
2019-03-29T19:27:01.103Z,4.50
2019-03-29T19:29:30.886Z,3.93
2019-03-29T19:32:00.702Z,3.50
2019-03-29T19:34:30.440Z,8.23
2019-03-29T19:37:01.634Z,4.73
2019-03-29T19:39:31.628Z,5.63
2019-03-29T19:42:01.486Z,5.40
2019-03-29T19:44:31.248Z,4.87
2019-03-29T19:47:12.944Z,4.40
2019-03-29T19:49:32.670Z,6.17
2019-03-29T19:52:02.528Z,4.50
2019-03-29T19:54:32.262Z,3.23
2019-03-29T19:57:02.064Z,3.80
2019-03-29T19:59:31.767Z,5.03
2019-03-29T20:02:01.542Z,6.10
2019-03-29T20:04:31.396Z,4.43
2019-03-29T20:07:01.169Z,4.03
2019-03-29T20:09:30.966Z,4.93
2019-03-29T20:12:00.656Z,3.90
2019-03-29T20:14:30.372Z,3.77
2019-03-29T20:17:00.399Z,4.93
2019-03-29T20:19:30.210Z,4.90
2019-03-29T20:21:59.894Z,4.40
2019-03-29T20:24:29.639Z,5.80
2019-03-29T20:26:59.358Z,4.60
2019-03-29T20:29:29.126Z,4.90
2019-03-29T20:31:58.949Z,4.97
2019-03-29T20:34:28.819Z,5.73
2019-03-29T20:36:58.562Z,4.37
2019-03-29T20:39:28.354Z,3.80
2019-03-29T20:41:58.183Z,3.90
2019-03-29T20:44:27.960Z,4.63
2019-03-29T20:46:57.735Z,4.77
2019-03-29T20:49:27.489Z,4.87
2019-03-29T20:51:57.282Z,4.33
2019-03-29T20:54:27.120Z,5.17
2019-03-29T20:56:56.924Z,5.77
2019-03-29T20:59:26.952Z,5.30
2019-03-29T21:01:56.641Z,4.70
2019-03-29T21:04:26.334Z,4.30
2019-03-29T21:06:56.426Z,4.40
2019-03-29T21:09:28.747Z,7.90
2019-03-29T21:11:59.315Z,3.83
2019-03-29T21:14:29.454Z,5.10
2019-03-29T21:16:59.269Z,4.63
2019-03-29T21:19:29.351Z,5.60
2019-03-29T21:21:59.247Z,4.97
2019-03-29T21:24:29.036Z,4.23
2019-03-29T21:26:59.065Z,3.23
2019-03-29T21:29:28.927Z,8.23
2019-03-29T21:31:58.859Z,5.00
2019-03-29T21:34:28.975Z,4.07
2019-03-29T21:36:58.701Z,6.67
2019-03-29T21:39:31.096Z,9.30
2019-03-29T21:41:59.947Z,4.63
2019-03-29T21:44:30.073Z,8.77
2019-03-29T21:47:00.777Z,5.70
2019-03-29T21:49:30.562Z,5.70
2019-03-29T21:52:00.325Z,6.60
2019-03-29T21:54:30.488Z,4.80
2019-03-29T21:57:00.832Z,6.20
2019-03-29T21:59:30.683Z,5.47
2019-03-29T22:02:00.452Z,6.23
2019-03-29T22:04:30.486Z,6.10
2019-03-29T22:07:00.620Z,6.20
2019-03-29T22:09:36.777Z,4.50
2019-03-29T22:12:01.975Z,6.20
2019-03-29T22:14:31.692Z,6.10
2019-03-29T22:17:01.587Z,6.40
2019-03-29T22:19:31.290Z,5.47
2019-03-29T22:22:01.455Z,9.40
2019-03-29T22:24:31.316Z,6.03
2019-03-29T22:27:01.234Z,6.47
2019-03-29T22:29:31.148Z,6.10
2019-03-29T22:32:01.008Z,5.50
2019-03-29T22:34:30.763Z,6.57
2019-03-29T22:37:00.483Z,5.10
2019-03-29T22:39:30.249Z,5.80
2019-03-29T22:42:00.245Z,6.00
2019-03-29T22:44:30.068Z,4.77
2019-03-29T22:47:03.050Z,6.13
2019-03-29T22:49:32.429Z,5.20
2019-03-29T22:52:02.574Z,4.63
2019-03-29T22:54:35.073Z,5.93
2019-03-29T22:57:04.905Z,7.93
2019-03-29T22:59:35.051Z,8.67
2019-03-29T23:02:05.103Z,9.13
2019-03-29T23:04:34.941Z,8.43
2019-03-29T23:07:04.827Z,9.00
2019-03-29T23:09:35.844Z,8.03
2019-03-29T23:12:05.634Z,6.73
2019-03-29T23:14:36.833Z,7.30
2019-03-29T23:17:06.582Z,6.30
2019-03-29T23:19:36.446Z,6.90
2019-03-29T23:22:06.538Z,9.00
2019-03-29T23:24:36.438Z,9.17
2019-03-29T23:27:06.301Z,9.33
2019-03-29T23:29:36.265Z,9.37
2019-03-29T23:32:08.215Z,9.77
2019-03-29T23:34:38.026Z,7.50
2019-03-29T23:37:07.903Z,13.20
2019-03-29T23:39:37.706Z,9.20
2019-03-29T23:42:07.445Z,8.57
2019-03-29T23:44:37.349Z,7.70
2019-03-29T23:47:07.140Z,10.18
2019-03-29T23:49:36.889Z,10.80
2019-03-29T23:52:06.715Z,9.80
2019-03-29T23:54:36.496Z,11.60
2019-03-29T23:57:06.167Z,8.00
2019-03-29T23:59:35.892Z,9.25
